Time;durP1;ratioP1;P1;durP2;ratioP2;P2;SDS_P1;SDS_P2;PMS_P1;PMS_P2;Temp;Humidity;BMP_temperature;BMP_pressure;BME280_temperature;BME280_humidity;BME280_pressure;Samples;Min_cycle;Max_cycle;Signal;HPM_P1;HPM_P2
2021/12/30 00:01:56;;;;;;;1.10;1.00;;;12.90;92.20;;;;;;5052856;28;20241;-65
2021/12/30 00:04:23;;;;;;;0.90;0.90;;;12.90;92.10;;;;;;5052597;28;20217;-63
2021/12/30 00:06:50;;;;;;;1.17;1.00;;;12.70;92.00;;;;;;5052741;28;20271;-62
2021/12/30 00:09:20;;;;;;;1.38;0.98;;;12.80;91.80;;;;;;5051249;28;20315;-60
2021/12/30 00:11:47;;;;;;;0.93;0.88;;;12.70;91.80;;;;;;5052621;28;20303;-60
2021/12/30 00:14:14;;;;;;;1.20;0.93;;;12.70;91.20;;;;;;5052701;28;20285;-59
2021/12/30 00:16:41;;;;;;;1.33;0.98;;;12.80;91.00;;;;;;5052676;28;20201;-64
2021/12/30 00:19:08;;;;;;;1.10;1.00;;;12.80;90.20;;;;;;5052546;28;20212;-61
2021/12/30 00:21:35;;;;;;;1.73;1.15;;;12.80;89.60;;;;;;5052543;28;20224;-59
2021/12/30 00:24:02;;;;;;;1.10;1.00;;;12.90;89.60;;;;;;5052660;28;20304;-62
2021/12/30 00:26:30;;;;;;;1.20;1.10;;;12.90;88.90;;;;;;5051328;28;20296;-60
2021/12/30 00:28:57;;;;;;;1.73;1.33;;;12.90;88.30;;;;;;5052532;28;20312;-64
2021/12/30 00:31:24;;;;;;;1.27;1.17;;;12.90;88.40;;;;;;5052389;28;20678;-65
2021/12/30 00:33:50;;;;;;;1.40;1.30;;;13.00;88.40;;;;;;5052540;28;20201;-59
2021/12/30 00:36:17;;;;;;;3.13;1.13;;;13.10;88.60;;;;;;5052508;28;20236;-62
2021/12/30 00:38:45;;;;;;;0.95;0.95;;;13.10;87.60;;;;;;5052466;28;20213;-64
2021/12/30 00:41:13;;;;;;;1.45;1.10;;;13.20;88.00;;;;;;5050901;28;20205;-61
2021/12/30 00:43:41;;;;;;;2.75;1.30;;;13.10;87.40;;;;;;5052371;28;20211;-62
2021/12/30 00:46:09;;;;;;;1.67;1.17;;;13.10;87.60;;;;;;5052285;28;20205;-61
2021/12/30 00:48:36;;;;;;;1.27;1.17;;;13.10;87.90;;;;;;5052446;28;20283;-60
2021/12/30 00:51:03;;;;;;;1.67;1.20;;;13.10;86.40;;;;;;5052405;28;20223;-63
2021/12/30 00:53:31;;;;;;;1.52;1.30;;;13.20;87.00;;;;;;5052407;28;20678;-63
2021/12/30 00:55:57;;;;;;;1.38;1.20;;;13.30;87.10;;;;;;5053904;28;20300;-60
2021/12/30 00:58:24;;;;;;;1.23;1.10;;;13.40;86.70;;;;;;5056061;28;20300;-57
2021/12/30 01:00:54;;;;;;;2.95;1.20;;;13.30;85.70;;;;;;5056017;28;20202;-64
2021/12/30 01:03:22;;;;;;;1.73;1.30;;;13.10;86.20;;;;;;5056015;28;20611;-65
2021/12/30 01:05:49;;;;;;;1.50;1.40;;;13.10;86.40;;;;;;5055923;28;20203;-64
2021/12/30 01:08:16;;;;;;;1.48;1.30;;;13.10;86.30;;;;;;5055815;28;20590;-64
2021/12/30 01:10:45;;;;;;;1.45;1.35;;;13.10;86.50;;;;;;5054234;28;20746;-62
2021/12/30 01:13:17;;;;;;;1.95;1.40;;;13.10;86.20;;;;;;5055724;28;20212;-60
2021/12/30 01:15:49;;;;;;;1.35;1.20;;;13.10;86.00;;;;;;5055910;28;20198;-59
2021/12/30 01:18:34;;;;;;;1.85;1.40;;;13.20;86.10;;;;;;5055867;28;20610;-61
2021/12/30 01:21:01;;;;;;;1.98;1.42;;;13.10;86.00;;;;;;5055664;28;20205;-62
2021/12/30 01:23:28;;;;;;;1.40;1.30;;;13.10;85.70;;;;;;5055541;28;20216;-63
2021/12/30 01:25:56;;;;;;;1.40;1.30;;;13.10;85.70;;;;;;5054055;28;20757;-60
2021/12/30 01:28:23;;;;;;;1.90;1.40;;;13.20;85.60;;;;;;5055501;28;20240;-62
2021/12/30 01:30:51;;;;;;;1.40;1.30;;;13.10;85.10;;;;;;5055515;28;20202;-63
2021/12/30 01:33:19;;;;;;;3.63;1.30;;;13.10;85.40;;;;;;5055372;28;20212;-63
2021/12/30 01:35:46;;;;;;;1.55;1.45;;;13.00;85.60;;;;;;5055486;28;20232;-63
2021/12/30 01:38:16;;;;;;;1.40;1.30;;;13.10;85.50;;;;;;5055176;28;20304;-60
2021/12/30 01:40:44;;;;;;;4.15;1.50;;;13.00;86.00;;;;;;5053995;28;20209;-59
2021/12/30 01:43:11;;;;;;;2.40;1.50;;;12.90;86.00;;;;;;5055267;28;20289;-58
2021/12/30 01:45:39;;;;;;;1.40;1.30;;;12.90;85.80;;;;;;5055146;28;20657;-60
2021/12/30 01:48:06;;;;;;;1.58;1.48;;;12.80;86.20;;;;;;5055128;28;20229;-61
2021/12/30 01:50:35;;;;;;;2.33;1.60;;;12.80;85.70;;;;;;5055129;28;20207;-59
2021/12/30 01:53:03;;;;;;;1.83;1.50;;;12.80;85.60;;;;;;5055087;28;20201;-59
2021/12/30 01:55:31;;;;;;;1.80;1.50;;;12.80;85.20;;;;;;5053664;28;20233;-60
2021/12/30 01:57:58;;;;;;;3.05;1.50;;;12.70;85.20;;;;;;5054991;28;20209;-61
2021/12/30 02:00:26;;;;;;;2.35;1.60;;;12.70;85.50;;;;;;5055054;28;20209;-58
2021/12/30 02:02:53;;;;;;;3.40;1.67;;;12.80;85.60;;;;;;5054810;28;20573;-60
2021/12/30 02:05:20;;;;;;;1.58;1.48;;;12.90;84.70;;;;;;5054401;28;20205;-61
2021/12/30 02:07:49;;;;;;;2.13;1.60;;;13.00;84.60;;;;;;5054581;28;20663;-58
2021/12/30 02:10:16;;;;;;;1.90;1.80;;;13.10;85.00;;;;;;5053198;28;20320;-58
2021/12/30 02:12:46;;;;;;;5.47;1.90;;;13.10;84.00;;;;;;5054745;28;20288;-61
2021/12/30 02:15:14;;;;;;;1.60;1.50;;;13.00;84.20;;;;;;5054696;28;20236;-61
2021/12/30 02:17:42;;;;;;;1.60;1.50;;;13.20;84.40;;;;;;5054609;28;20557;-62
2021/12/30 02:20:13;;;;;;;1.95;1.50;;;13.20;83.50;;;;;;5054489;28;20219;-61
2021/12/30 02:22:41;;;;;;;2.50;1.70;;;13.20;83.50;;;;;;5054566;28;20209;-61
2021/12/30 02:25:09;;;;;;;1.70;1.60;;;13.20;83.70;;;;;;5052991;28;20678;-60
2021/12/30 02:27:35;;;;;;;2.00;1.80;;;13.20;83.30;;;;;;5054366;28;20731;-61
2021/12/30 02:30:03;;;;;;;1.80;1.70;;;13.20;83.50;;;;;;5054305;28;20778;-61
2021/12/30 02:32:30;;;;;;;2.10;1.52;;;13.30;83.70;;;;;;5054227;28;20201;-60
2021/12/30 02:34:57;;;;;;;1.83;1.60;;;13.40;83.60;;;;;;5054380;28;20209;-62
2021/12/30 02:37:25;;;;;;;1.50;1.40;;;13.40;83.20;;;;;;5054298;28;20208;-62
2021/12/30 02:39:54;;;;;;;1.80;1.70;;;13.40;83.60;;;;;;5052775;28;20236;-58
2021/12/30 02:42:23;;;;;;;2.10;1.75;;;13.40;83.20;;;;;;5054242;28;20206;-62
2021/12/30 02:44:51;;;;;;;1.70;1.60;;;13.40;83.20;;;;;;5054090;28;20205;-61
2021/12/30 02:47:18;;;;;;;1.60;1.50;;;13.40;82.60;;;;;;5054130;28;20583;-58
2021/12/30 02:49:45;;;;;;;1.88;1.77;;;13.40;82.80;;;;;;5053873;28;20228;-61
2021/12/30 02:52:12;;;;;;;1.70;1.52;;;13.40;83.50;;;;;;5054076;28;20201;-61
2021/12/30 02:54:41;;;;;;;2.10;1.65;;;13.40;83.20;;;;;;5052631;28;20582;-58
2021/12/30 02:57:08;;;;;;;2.15;1.40;;;13.40;83.30;;;;;;5053886;28;20209;-59
2021/12/30 02:59:35;;;;;;;1.92;1.70;;;13.30;83.30;;;;;;5053804;28;20838;-58
2021/12/30 03:02:02;;;;;;;1.60;1.50;;;13.20;83.70;;;;;;5053664;28;20225;-61
2021/12/30 03:04:30;;;;;;;1.95;1.40;;;13.10;84.10;;;;;;5053708;28;20202;-59
2021/12/30 03:06:57;;;;;;;1.70;1.40;;;13.10;84.60;;;;;;5053704;28;20201;-59
2021/12/30 03:09:24;;;;;;;1.50;1.40;;;13.30;84.30;;;;;;5052191;28;20660;-59
2021/12/30 03:11:54;;;;;;;1.67;1.58;;;13.40;84.00;;;;;;5053519;28;20285;-61
2021/12/30 03:14:24;;;;;;;1.50;1.40;;;13.50;84.10;;;;;;5053392;28;20656;-61
2021/12/30 03:16:51;;;;;;;2.53;1.52;;;13.50;84.00;;;;;;5053022;28;20549;-60
2021/12/30 03:19:18;;;;;;;2.13;1.50;;;13.50;83.30;;;;;;5053277;28;20308;-60
2021/12/30 03:21:45;;;;;;;1.60;1.50;;;13.50;84.00;;;;;;5053406;28;20651;-60
2021/12/30 03:24:12;;;;;;;1.70;1.60;;;13.50;83.70;;;;;;5053362;28;20208;-57
2021/12/30 03:26:39;;;;;;;1.70;1.60;;;13.50;83.70;;;;;;5051919;28;20198;-57
2021/12/30 03:29:07;;;;;;;1.85;1.50;;;13.40;83.70;;;;;;5053238;28;20233;-60
2021/12/30 03:31:34;;;;;;;1.58;1.48;;;13.40;84.30;;;;;;5053241;28;20215;-60
2021/12/30 03:34:01;;;;;;;1.63;1.52;;;13.30;84.40;;;;;;5053179;28;20205;-60
2021/12/30 03:36:27;;;;;;;2.38;1.60;;;13.40;84.30;;;;;;5053026;28;20201;-59
2021/12/30 03:38:56;;;;;;;2.40;1.65;;;13.30;84.40;;;;;;5053095;28;20206;-61
2021/12/30 03:41:25;;;;;;;1.65;1.55;;;13.30;84.70;;;;;;5051496;28;20205;-58
2021/12/30 03:43:52;;;;;;;1.50;1.40;;;13.20;85.00;;;;;;5053130;28;20228;-58
2021/12/30 03:46:21;;;;;;;1.60;1.50;;;13.20;85.60;;;;;;5053084;28;20698;-58
2021/12/30 03:48:48;;;;;;;1.60;1.50;;;13.10;85.70;;;;;;5052959;28;20229;-59
2021/12/30 03:51:21;;;;;;;1.60;1.50;;;13.00;86.00;;;;;;5053036;28;20289;-57
2021/12/30 03:53:50;;;;;;;5.40;1.70;;;12.90;86.40;;;;;;5052836;28;20198;-58
2021/12/30 03:56:18;;;;;;;2.65;1.58;;;12.70;87.20;;;;;;5051472;28;20209;-57
2021/12/30 03:58:46;;;;;;;1.90;1.75;;;12.60;87.90;;;;;;5052879;28;20212;-59
2021/12/30 04:01:18;;;;;;;1.55;1.45;;;12.50;88.50;;;;;;5052876;28;20225;-55
2021/12/30 04:03:48;;;;;;;1.27;1.20;;;12.40;88.90;;;;;;5052863;28;20201;-57
2021/12/30 04:06:15;;;;;;;1.50;1.40;;;12.40;89.60;;;;;;5052590;28;20205;-56
2021/12/30 04:08:43;;;;;;;1.60;1.40;;;12.30;90.30;;;;;;5052649;28;20241;-56
2021/12/30 04:11:09;;;;;;;1.65;1.55;;;12.30;90.40;;;;;;5051187;28;20229;-59
2021/12/30 04:13:37;;;;;;;1.50;1.40;;;12.30;90.70;;;;;;5052773;28;20201;-58
2021/12/30 04:16:05;;;;;;;1.48;1.38;;;12.40;90.60;;;;;;5052781;28;20212;-58
2021/12/30 04:18:32;;;;;;;1.42;1.30;;;12.40;90.90;;;;;;5052786;28;20466;-56
2021/12/30 04:21:00;;;;;;;1.80;1.40;;;12.40;91.40;;;;;;5052493;28;20204;-60
2021/12/30 04:23:27;;;;;;;1.48;1.38;;;12.30;91.70;;;;;;5052648;28;20215;-55
2021/12/30 04:25:54;;;;;;;1.70;1.27;;;12.30;91.90;;;;;;5051206;28;20211;-58
2021/12/30 04:28:21;;;;;;;1.58;1.20;;;12.20;92.80;;;;;;5053050;28;20204;-59
2021/12/30 04:30:48;;;;;;;1.30;1.20;;;12.00;93.50;;;;;;5056503;28;20229;-58
2021/12/30 04:33:15;;;;;;;1.30;1.20;;;12.00;93.90;;;;;;5056662;28;20215;-59
2021/12/30 04:35:42;;;;;;;1.65;1.20;;;11.90;94.10;;;;;;5056398;28;20215;-61
2021/12/30 04:38:10;;;;;;;1.75;1.20;;;11.80;94.70;;;;;;5056530;28;20215;-58
2021/12/30 04:40:37;;;;;;;2.60;1.33;;;11.80;95.20;;;;;;5055013;28;20292;-59
2021/12/30 04:43:04;;;;;;;1.35;1.25;;;11.80;95.50;;;;;;5056340;28;20205;-59
2021/12/30 04:45:31;;;;;;;1.05;1.00;;;11.70;95.60;;;;;;5056592;28;20206;-58
2021/12/30 04:47:57;;;;;;;1.80;1.40;;;11.70;95.70;;;;;;5056251;28;20201;-58
2021/12/30 04:50:25;;;;;;;1.30;1.20;;;11.70;95.80;;;;;;5056208;28;20271;-57
2021/12/30 04:52:52;;;;;;;1.20;1.10;;;11.70;96.10;;;;;;5056267;28;20245;-60
2021/12/30 04:55:21;;;;;;;1.63;1.50;;;11.70;96.30;;;;;;5054585;28;20652;-58
2021/12/30 04:57:47;;;;;;;4.00;1.65;;;11.70;96.30;;;;;;5056184;28;20208;-58
2021/12/30 05:00:15;;;;;;;1.25;1.15;;;11.70;96.30;;;;;;5056080;28;20220;-57
2021/12/30 05:03:06;;;;;;;2.08;1.30;;;11.60;96.30;;;;;;5055815;28;20580;-58
2021/12/30 05:05:33;;;;;;;1.40;1.30;;;11.60;96.30;;;;;;5055970;28;20251;-58
2021/12/30 05:08:00;;;;;;;2.00;1.30;;;11.70;96.30;;;;;;5055953;28;20213;-58
2021/12/30 05:10:28;;;;;;;1.77;1.63;;;11.70;96.30;;;;;;5054099;28;20237;-59
2021/12/30 05:12:55;;;;;;;1.70;1.30;;;11.70;96.30;;;;;;5055779;28;20216;-58
2021/12/30 05:15:22;;;;;;;2.13;1.20;;;11.70;96.20;;;;;;5055749;28;20295;-58
2021/12/30 05:17:49;;;;;;;1.33;1.23;;;11.70;96.00;;;;;;5055777;28;20202;-57
2021/12/30 05:20:16;;;;;;;1.40;1.30;;;11.70;96.00;;;;;;5055782;28;20289;-58
2021/12/30 05:22:43;;;;;;;1.45;1.35;;;11.80;95.70;;;;;;5055677;28;20240;-58
2021/12/30 05:25:11;;;;;;;2.30;1.60;;;11.80;95.40;;;;;;5054228;28;20224;-58
2021/12/30 05:27:40;;;;;;;1.20;1.10;;;11.80;95.20;;;;;;5055410;28;20566;-58
2021/12/30 05:30:09;;;;;;;2.25;1.45;;;11.80;95.40;;;;;;5055473;28;20328;-58
2021/12/30 05:32:37;;;;;;;2.00;1.30;;;11.70;95.50;;;;;;5055466;28;20212;-57
2021/12/30 05:35:05;;;;;;;1.50;1.40;;;11.60;95.70;;;;;;5055454;28;20208;-57
2021/12/30 05:37:32;;;;;;;1.60;1.50;;;11.60;96.00;;;;;;5055519;28;20566;-58
2021/12/30 05:39:59;;;;;;;1.30;1.20;;;11.60;96.00;;;;;;5053423;28;20213;-58
2021/12/30 05:42:26;;;;;;;1.33;1.00;;;11.60;96.20;;;;;;5055024;28;20205;-58
2021/12/30 05:44:55;;;;;;;1.73;1.38;;;11.60;96.20;;;;;;5055289;28;20281;-56
2021/12/30 05:47:23;;;;;;;1.40;1.30;;;11.70;96.20;;;;;;5055319;28;20201;-57
2021/12/30 05:49:50;;;;;;;1.35;1.25;;;11.60;96.00;;;;;;5055139;28;20232;-57
2021/12/30 05:52:17;;;;;;;2.05;1.20;;;11.60;96.20;;;;;;5055116;28;20197;-58
2021/12/30 05:54:45;;;;;;;1.75;1.10;;;11.60;96.30;;;;;;5053747;28;20212;-57
2021/12/30 05:57:12;;;;;;;0.90;0.90;;;11.70;96.10;;;;;;5054840;28;20207;-58
2021/12/30 05:59:39;;;;;;;1.25;1.02;;;11.70;96.00;;;;;;5055039;28;20207;-57
2021/12/30 06:02:07;;;;;;;0.80;0.80;;;11.80;95.80;;;;;;5054866;28;20248;-59
2021/12/30 06:04:34;;;;;;;1.60;0.90;;;11.80;95.90;;;;;;5054953;28;20561;-57
2021/12/30 06:07:01;;;;;;;0.90;0.90;;;11.80;95.90;;;;;;5054846;28;20292;-57
2021/12/30 06:09:27;;;;;;;0.80;0.80;;;11.90;95.70;;;;;;5053283;28;20312;-57
2021/12/30 06:11:54;;;;;;;0.90;0.90;;;11.90;95.60;;;;;;5054449;28;20328;-59
2021/12/30 06:14:21;;;;;;;1.85;0.90;;;11.90;95.70;;;;;;5054794;28;20204;-60
2021/12/30 06:16:48;;;;;;;0.80;0.80;;;11.90;95.80;;;;;;5054682;28;20578;-57
2021/12/30 06:19:16;;;;;;;0.80;0.80;;;12.00;95.90;;;;;;5054737;28;20240;-56
2021/12/30 06:21:43;;;;;;;0.90;0.90;;;12.00;96.10;;;;;;5054502;28;20256;-59
2021/12/30 06:24:10;;;;;;;0.85;0.80;;;12.00;96.20;;;;;;5054430;28;20205;-58
2021/12/30 06:26:37;;;;;;;1.38;1.00;;;11.90;96.30;;;;;;5053013;28;20212;-57
2021/12/30 06:29:05;;;;;;;0.80;0.80;;;11.90;96.30;;;;;;5054325;28;20197;-57
2021/12/30 06:31:32;;;;;;;0.80;0.80;;;11.90;96.30;;;;;;5054338;28;20205;-58
2021/12/30 06:33:59;;;;;;;1.45;0.85;;;11.90;96.30;;;;;;5054228;28;20212;-55
2021/12/30 06:36:27;;;;;;;0.77;0.77;;;11.90;96.30;;;;;;5054175;28;20201;-56
2021/12/30 06:38:54;;;;;;;3.72;0.90;;;11.90;96.30;;;;;;5054174;28;20213;-57
2021/12/30 06:41:21;;;;;;;1.00;0.90;;;11.90;96.30;;;;;;5052835;28;20240;-56
2021/12/30 06:43:48;;;;;;;1.15;1.00;;;11.80;96.30;;;;;;5054133;28;20684;-59
2021/12/30 06:46:19;;;;;;;0.80;0.80;;;11.80;96.30;;;;;;5054040;28;20205;-59
2021/12/30 06:48:46;;;;;;;0.95;0.85;;;11.80;96.30;;;;;;5054113;28;20263;-58
2021/12/30 06:51:13;;;;;;;1.23;1.02;;;11.80;96.30;;;;;;5053698;28;20225;-57
2021/12/30 06:53:41;;;;;;;0.88;0.88;;;11.80;96.30;;;;;;5053116;28;20205;-59
2021/12/30 06:56:08;;;;;;;1.00;0.90;;;11.80;96.30;;;;;;5052448;28;20201;-64
2021/12/30 06:58:36;;;;;;;0.80;0.80;;;11.70;96.30;;;;;;5053833;28;20207;-60
2021/12/30 07:01:04;;;;;;;1.10;0.90;;;11.70;96.30;;;;;;5053709;28;20228;-57
2021/12/30 07:03:31;;;;;;;0.90;0.90;;;11.70;96.30;;;;;;5053704;28;20210;-58
2021/12/30 07:05:58;;;;;;;1.20;1.10;;;11.70;96.30;;;;;;5053625;28;20208;-62
2021/12/30 07:08:25;;;;;;;0.80;0.80;;;11.60;96.30;;;;;;5053620;28;20684;-59
2021/12/30 07:10:53;;;;;;;2.05;1.00;;;11.60;96.30;;;;;;5051938;28;20251;-58
2021/12/30 07:13:20;;;;;;;2.63;1.40;;;11.60;96.30;;;;;;5053566;28;20577;-61
2021/12/30 07:15:47;;;;;;;1.50;1.40;;;11.60;96.30;;;;;;5053548;28;20292;-61
2021/12/30 07:18:14;;;;;;;1.40;1.30;;;11.60;96.30;;;;;;5053400;28;20292;-58
2021/12/30 07:20:41;;;;;;;3.47;2.30;;;11.60;96.30;;;;;;5053432;28;20244;-60
2021/12/30 07:23:08;;;;;;;3.00;2.55;;;11.60;96.30;;;;;;5053441;28;20212;-59
2021/12/30 07:25:35;;;;;;;1.70;1.60;;;11.60;96.30;;;;;;5052032;28;20201;-60
2021/12/30 07:28:04;;;;;;;3.05;1.63;;;11.60;96.30;;;;;;5053390;28;20201;-62
2021/12/30 07:30:31;;;;;;;1.33;1.23;;;11.50;96.30;;;;;;5053213;28;20290;-61
2021/12/30 07:32:58;;;;;;;1.60;1.10;;;11.60;96.30;;;;;;5053021;28;20202;-59
2021/12/30 07:35:25;;;;;;;1.30;1.20;;;11.60;96.30;;;;;;5053466;28;20233;-57
2021/12/30 07:37:52;;;;;;;1.17;1.08;;;11.60;96.30;;;;;;5053204;28;20211;-67
2021/12/30 07:40:20;;;;;;;1.27;1.17;;;11.70;96.30;;;;;;5051983;28;20208;-59
2021/12/30 07:42:47;;;;;;;1.05;1.00;;;11.70;96.30;;;;;;5052922;28;20200;-58
2021/12/30 07:45:17;;;;;;;0.93;0.90;;;11.70;96.30;;;;;;5053002;28;20202;-61
2021/12/30 07:47:44;;;;;;;1.10;1.10;;;11.70;96.30;;;;;;5053008;28;20219;-60
2021/12/30 07:50:12;;;;;;;1.83;0.93;;;11.70;96.30;;;;;;5052966;28;20320;-59
2021/12/30 07:52:39;;;;;;;1.30;1.00;;;11.70;96.30;;;;;;5052961;28;20207;-60
2021/12/30 07:55:07;;;;;;;1.10;1.00;;;11.70;96.30;;;;;;5051601;28;20205;-60
2021/12/30 07:57:34;;;;;;;1.40;1.30;;;11.80;96.30;;;;;;5052725;28;20212;-61
2021/12/30 08:00:01;;;;;;;1.30;1.17;;;11.80;96.30;;;;;;5052677;28;20201;-64
2021/12/30 08:02:30;;;;;;;1.10;1.10;;;11.80;96.30;;;;;;5052783;28;20773;-62
2021/12/30 08:04:57;;;;;;;1.20;1.10;;;11.80;96.30;;;;;;5052580;28;20562;-60
2021/12/30 08:07:24;;;;;;;1.60;1.50;;;11.80;96.30;;;;;;5052694;28;20559;-63
2021/12/30 08:09:53;;;;;;;1.50;1.40;;;11.90;96.30;;;;;;5051147;28;20216;-58
2021/12/30 08:12:20;;;;;;;1.60;1.50;;;11.90;96.30;;;;;;5052547;28;20613;-62
2021/12/30 08:14:46;;;;;;;1.50;1.40;;;12.00;96.30;;;;;;5052656;28;20205;-60
2021/12/30 08:17:13;;;;;;;1.73;1.40;;;12.00;96.30;;;;;;5052735;28;20240;-60
2021/12/30 08:19:41;;;;;;;1.75;1.65;;;12.00;96.30;;;;;;5052645;28;20583;-58
2021/12/30 08:22:08;;;;;;;1.08;1.08;;;12.00;96.30;;;;;;5052640;28;20201;-59
2021/12/30 08:24:35;;;;;;;1.20;1.10;;;12.00;96.30;;;;;;5051531;28;20211;-60
2021/12/30 08:27:02;;;;;;;1.27;1.17;;;12.00;96.30;;;;;;5052406;28;20220;-60
2021/12/30 08:29:31;;;;;;;1.30;1.10;;;12.00;96.30;;;;;;5052504;28;20622;-60
2021/12/30 08:31:58;;;;;;;1.27;1.17;;;12.00;96.30;;;;;;5052432;28;20711;-59
2021/12/30 08:34:25;;;;;;;1.20;1.10;;;11.90;96.30;;;;;;5052686;28;20201;-60
2021/12/30 08:36:53;;;;;;;1.75;1.40;;;11.90;96.30;;;;;;5052500;28;20296;-61
2021/12/30 08:39:20;;;;;;;1.40;1.30;;;12.00;96.30;;;;;;5051616;28;20215;-60
2021/12/30 08:41:47;;;;;;;1.35;1.25;;;12.00;96.30;;;;;;5052203;28;20209;-60
2021/12/30 08:44:14;;;;;;;1.48;1.35;;;12.00;96.30;;;;;;5052481;28;20288;-58
2021/12/30 08:46:41;;;;;;;1.17;1.13;;;12.00;96.30;;;;;;5052490;28;20225;-61
2021/12/30 08:49:07;;;;;;;1.95;1.70;;;12.00;96.30;;;;;;5052368;28;20216;-59
2021/12/30 08:51:36;;;;;;;1.40;1.30;;;12.00;96.30;;;;;;5052317;28;20332;-62
2021/12/30 08:54:04;;;;;;;1.40;1.30;;;12.00;96.30;;;;;;5052290;28;20656;-61
2021/12/30 08:56:31;;;;;;;1.40;1.30;;;12.00;96.30;;;;;;5050900;28;20198;-61
2021/12/30 08:58:58;;;;;;;1.42;1.33;;;12.10;96.30;;;;;;5052257;28;20205;-59
2021/12/30 09:01:25;;;;;;;1.23;1.13;;;12.10;96.30;;;;;;5052207;28;20401;-58
2021/12/30 09:03:52;;;;;;;1.25;1.20;;;12.10;96.30;;;;;;5052302;28;20206;-61
2021/12/30 09:06:19;;;;;;;1.40;1.30;;;12.20;96.30;;;;;;5052138;28;20223;-63
2021/12/30 09:08:46;;;;;;;1.70;1.10;;;12.20;96.30;;;;;;5051985;28;20219;-62
2021/12/30 09:11:14;;;;;;;1.00;1.00;;;12.30;96.30;;;;;;5050594;28;20248;-61
2021/12/30 09:13:41;;;;;;;1.20;1.10;;;12.30;96.30;;;;;;5052214;28;20307;-60
2021/12/30 09:16:08;;;;;;;1.50;1.15;;;12.40;96.30;;;;;;5053774;28;20205;-62
2021/12/30 09:18:35;;;;;;;1.20;1.10;;;12.50;96.30;;;;;;5055787;28;20561;-58
2021/12/30 09:21:02;;;;;;;1.42;1.33;;;12.50;96.20;;;;;;5055707;28;20197;-58
2021/12/30 09:23:29;;;;;;;1.02;1.02;;;12.60;96.10;;;;;;5055562;28;20211;-60
2021/12/30 09:25:56;;;;;;;1.30;1.20;;;12.70;95.90;;;;;;5054300;28;20215;-58
2021/12/30 09:28:24;;;;;;;2.28;2.15;;;12.80;95.80;;;;;;5055588;28;20212;-58
2021/12/30 09:30:51;;;;;;;1.30;1.20;;;12.90;95.80;;;;;;5055440;28;20582;-62
2021/12/30 09:33:18;;;;;;;1.27;1.17;;;12.90;95.30;;;;;;5055560;28;20300;-58
2021/12/30 09:35:47;;;;;;;1.20;1.10;;;12.90;95.00;;;;;;5055408;28;20298;-60
2021/12/30 09:38:14;;;;;;;1.30;1.20;;;13.00;95.00;;;;;;5055210;28;20209;-61
2021/12/30 09:40:41;;;;;;;1.23;1.13;;;12.90;95.00;;;;;;5054018;28;20205;-58
2021/12/30 09:43:09;;;;;;;1.35;1.25;;;12.90;95.40;;;;;;5055140;28;20217;-61
2021/12/30 09:45:40;;;;;;;1.27;1.17;;;12.90;95.10;;;;;;5055222;28;20733;-60
2021/12/30 09:48:10;;;;;;;1.30;1.20;;;12.90;95.60;;;;;;5055206;28;20201;-56
2021/12/30 09:50:40;;;;;;;1.30;1.13;;;12.80;95.20;;;;;;5054942;28;20719;-56
2021/12/30 09:53:08;;;;;;;2.55;1.63;;;12.80;95.40;;;;;;5055094;28;20212;-57
2021/12/30 09:55:36;;;;;;;1.10;1.00;;;12.90;95.70;;;;;;5053866;28;20205;-56
2021/12/30 09:58:04;;;;;;;1.90;1.05;;;12.90;95.60;;;;;;5054872;28;20630;-56
2021/12/30 10:00:31;;;;;;;2.05;1.40;;;12.90;95.10;;;;;;5054872;28;20225;-60
2021/12/30 10:03:00;;;;;;;1.30;1.20;;;12.90;95.10;;;;;;5054855;28;20201;-59
2021/12/30 10:05:29;;;;;;;1.40;1.30;;;12.80;94.70;;;;;;5054815;28;20567;-59
2021/12/30 10:08:10;;;;;;;1.05;1.05;;;12.90;95.20;;;;;;5054811;28;20288;-60
2021/12/30 10:10:39;;;;;;;1.23;1.05;;;12.90;94.90;;;;;;5053323;28;20251;-59
2021/12/30 10:13:17;;;;;;;1.02;1.02;;;12.90;94.80;;;;;;5054714;28;20217;-60
2021/12/30 10:15:46;;;;;;;1.20;1.10;;;13.00;94.80;;;;;;5054601;28;20225;-59
2021/12/30 10:18:15;;;;;;;1.30;1.20;;;13.00;94.60;;;;;;5054739;28;20252;-59
2021/12/30 10:20:42;;;;;;;1.60;1.50;;;13.00;93.80;;;;;;5054624;28;20674;-59
2021/12/30 10:23:11;;;;;;;1.33;1.23;;;13.00;94.40;;;;;;5054531;28;20271;-62
2021/12/30 10:25:41;;;;;;;1.10;1.00;;;13.00;94.20;;;;;;5053232;28;20404;-62
2021/12/30 10:28:30;;;;;;;1.20;1.10;;;13.10;93.60;;;;;;5053918;28;20550;-59
2021/12/30 10:30:59;;;;;;;0.98;0.98;;;13.10;93.80;;;;;;5054272;28;20232;-60
2021/12/30 10:33:29;;;;;;;1.20;1.10;;;13.20;93.60;;;;;;5054430;28;20611;-60
2021/12/30 10:35:57;;;;;;;1.70;1.20;;;13.30;92.70;;;;;;5054315;28;20825;-59
2021/12/30 10:38:28;;;;;;;1.10;0.97;;;13.30;93.00;;;;;;5054146;28;20660;-59
2021/12/30 10:40:59;;;;;;;1.10;1.00;;;13.40;92.50;;;;;;5052798;28;20452;-61
2021/12/30 10:43:31;;;;;;;1.25;1.15;;;13.50;92.70;;;;;;5054001;28;20214;-59
2021/12/30 10:46:17;;;;;;;1.10;1.00;;;13.70;92.10;;;;;;5054156;28;20205;-59
2021/12/30 10:48:56;;;;;;;0.93;0.93;;;13.80;92.10;;;;;;5052347;28;20462;-62
2021/12/30 10:51:26;;;;;;;1.10;1.00;;;13.90;91.60;;;;;;5053886;28;20235;-59
2021/12/30 10:53:56;;;;;;;1.20;1.10;;;14.00;90.90;;;;;;5053959;28;20454;-62
2021/12/30 10:56:30;;;;;;;1.30;1.20;;;14.10;90.90;;;;;;5052378;28;20538;-60
2021/12/30 10:59:12;;;;;;;0.80;0.80;;;14.10;90.20;;;;;;5053713;28;20507;-58
2021/12/30 11:01:41;;;;;;;0.70;0.70;;;14.00;90.70;;;;;;5053633;28;20891;-62
2021/12/30 11:04:09;;;;;;;0.90;0.80;;;14.10;90.50;;;;;;5053793;28;20447;-58
2021/12/30 11:06:36;;;;;;;1.10;1.00;;;14.30;90.00;;;;;;5053614;28;20544;-58
2021/12/30 11:09:09;;;;;;;1.10;1.00;;;14.40;89.20;;;;;;5053558;28;20962;-60
2021/12/30 11:11:37;;;;;;;1.00;0.90;;;14.40;89.30;;;;;;5051933;28;20492;-60
2021/12/30 11:14:07;;;;;;;0.90;0.90;;;14.60;89.30;;;;;;5053541;28;20455;-59
2021/12/30 11:16:34;;;;;;;1.67;1.30;;;14.80;88.20;;;;;;5053618;28;20475;-61
2021/12/30 11:19:10;;;;;;;1.03;1.03;;;14.90;87.50;;;;;;5053676;28;20467;-61
2021/12/30 11:21:41;;;;;;;1.10;1.00;;;15.20;86.10;;;;;;5053571;28;20792;-59
2021/12/30 11:24:09;;;;;;;1.50;1.40;;;15.40;85.10;;;;;;5053455;28;20543;-59
2021/12/30 11:26:36;;;;;;;1.13;1.03;;;15.80;83.90;;;;;;5051791;28;20548;-62
2021/12/30 11:29:06;;;;;;;1.30;1.20;;;15.90;83.50;;;;;;5053232;28;20938;-61
2021/12/30 11:31:34;;;;;;;1.43;1.33;;;15.60;83.60;;;;;;5053202;28;20501;-60
2021/12/30 11:34:02;;;;;;;1.40;1.30;;;15.40;84.40;;;;;;5053293;28;20448;-59
2021/12/30 11:36:30;;;;;;;1.13;1.13;;;15.40;85.30;;;;;;5053145;28;21026;-61
2021/12/30 11:38:58;;;;;;;1.20;1.10;;;15.60;84.80;;;;;;5052548;28;20462;-59
2021/12/30 11:41:28;;;;;;;1.40;1.30;;;15.70;84.10;;;;;;5051842;28;20462;-60
2021/12/30 11:43:55;;;;;;;1.50;1.50;;;15.70;83.10;;;;;;5053043;28;20448;-59
2021/12/30 11:46:42;;;;;;;1.40;1.40;;;15.60;83.30;;;;;;5052891;28;20540;-60
2021/12/30 11:49:11;;;;;;;1.20;1.20;;;15.50;83.40;;;;;;5053009;28;20840;-59
2021/12/30 11:51:46;;;;;;;1.30;1.30;;;15.40;84.30;;;;;;5052703;28;20488;-59
2021/12/30 11:54:32;;;;;;;1.50;1.40;;;15.50;84.80;;;;;;5052973;28;20455;-59
2021/12/30 11:57:25;;;;;;;1.40;1.30;;;15.50;83.70;;;;;;5052777;28;20523;-59
2021/12/30 11:59:52;;;;;;;1.43;1.37;;;15.50;84.00;;;;;;5047156;28;20549;-58
2021/12/30 12:02:34;;;;;;;1.40;1.30;;;15.40;84.70;;;;;;5052859;28;20938;-60
2021/12/30 12:05:34;;;;;;;1.40;1.30;;;15.30;84.20;;;;;;5052688;28;20443;-60
2021/12/30 12:08:06;;;;;;;1.50;1.40;;;15.30;85.10;;;;;;5052740;28;20452;-59
2021/12/30 12:10:33;;;;;;;1.30;1.30;;;15.40;85.00;;;;;;5051228;28;20498;-60
2021/12/30 12:13:37;;;;;;;1.50;1.40;;;15.40;84.70;;;;;;5052524;28;20487;-58
2021/12/30 12:16:04;;;;;;;1.20;1.20;;;15.40;84.00;;;;;;5052596;28;20448;-60
2021/12/30 12:18:32;;;;;;;1.70;1.60;;;15.40;84.00;;;;;;5052532;28;20451;-55
2021/12/30 12:21:01;;;;;;;1.97;1.87;;;15.30;83.90;;;;;;5052525;28;20454;-59
2021/12/30 12:23:32;;;;;;;1.50;1.50;;;15.20;84.90;;;;;;5052667;28;20455;-60
2021/12/30 12:26:07;;;;;;;1.80;1.70;;;15.20;84.40;;;;;;5051142;28;20491;-61
2021/12/30 12:28:36;;;;;;;1.90;1.80;;;15.40;84.10;;;;;;5052464;28;20538;-59
2021/12/30 12:31:06;;;;;;;1.60;1.60;;;15.40;84.10;;;;;;5052410;28;20454;-59
2021/12/30 12:33:34;;;;;;;1.80;1.70;;;15.40;83.90;;;;;;5052534;28;20480;-60
2021/12/30 12:36:03;;;;;;;1.80;1.70;;;15.50;83.80;;;;;;5052397;28;20459;-58
2021/12/30 12:38:40;;;;;;;1.80;1.70;;;15.50;83.50;;;;;;5052395;28;20479;-60
2021/12/30 12:41:19;;;;;;;1.70;1.60;;;15.40;83.50;;;;;;5051100;28;20538;-61
2021/12/30 12:43:51;;;;;;;1.70;1.60;;;15.20;84.60;;;;;;5052235;28;20462;-59
2021/12/30 12:46:36;;;;;;;1.80;1.70;;;15.20;84.00;;;;;;5052455;28;20447;-58
2021/12/30 12:49:06;;;;;;;1.50;1.40;;;15.00;84.70;;;;;;5052488;28;20440;-61
2021/12/30 12:51:34;;;;;;;1.57;1.47;;;14.80;85.10;;;;;;5054665;28;20479;-59
2021/12/30 12:54:03;;;;;;;1.40;1.30;;;14.80;85.60;;;;;;5056414;28;20799;-60
2021/12/30 12:56:34;;;;;;;1.60;1.50;;;14.80;85.90;;;;;;5054720;28;20534;-57